Terminal Aerodrome Forecast
Issued by NWS Cleveland, OH

Home | Current Version | Previous Version | Text Only | Print | Product List | Glossary On
Versions: 1 2 3 4 5 6 7 8 9 10 11 12 13 14 15 16 17 18
000
FTUS41 KCLE 011100
TAFTOL
TAF
KTOL 011138Z 0112/0212 04005KT 1SM -SN BR OVC007
     FM011500 05010KT 1/2SM SN OVC005
     FM012200 05015G25KT 1/2SM SN BLSN OVC003
      TEMPO 0123/0203 1/4SM +SN
     FM020500 02018G28KT 1 1/2SM -SN BLSN OVC005
     FM020800 02018G28KT 2SM -SN BLSN OVC009=

USA.gov is the U.S. government's official web portal to all federal, state and local government web resources and services.